Time;durP1;ratioP1;P1;durP2;ratioP2;P2;SDS_P1;SDS_P2;PMS_P1;PMS_P2;Temp;Humidity;BMP_temperature;BMP_pressure;BME280_temperature;BME280_humidity;BME280_pressure;Samples;Min_cycle;Max_cycle;Signal;HPM_P1;HPM_P2
2023/03/30 00:02:05;;;;;;;20.48;13.13;;;;;;;12.93;79.58;100507.91;5071552;28;20025;-45
2023/03/30 00:04:33;;;;;;;19.25;12.90;;;;;;;12.93;79.85;100507.91;5074950;28;20178;-49
2023/03/30 00:07:01;;;;;;;18.95;12.65;;;;;;;12.92;80.22;100505.44;5057273;28;20024;-45
2023/03/30 00:09:29;;;;;;;19.52;13.27;;;;;;;12.93;79.71;100495.97;5075439;28;20441;-45
2023/03/30 00:11:55;;;;;;;19.58;12.70;;;;;;;12.92;79.08;100488.78;5075310;28;20028;-46
2023/03/30 00:14:28;;;;;;;18.88;12.80;;;;;;;12.95;79.38;100488.13;5057207;28;20039;-44
2023/03/30 00:16:54;;;;;;;17.80;12.52;;;;;;;12.96;78.93;100481.41;5075329;28;20031;-45
2023/03/30 00:19:19;;;;;;;18.80;12.95;;;;;;;12.99;78.18;100471.59;5075130;28;20036;-48
2023/03/30 00:21:44;;;;;;;19.52;12.55;;;;;;;13.04;78.73;100460.31;5075095;28;20081;-45
2023/03/30 00:24:10;;;;;;;19.20;12.35;;;;;;;13.05;77.48;100470.28;5074987;28;20063;-46
2023/03/30 00:26:35;;;;;;;18.33;12.45;;;;;;;13.05;77.36;100467.50;5074903;28;20389;-44
2023/03/30 00:29:00;;;;;;;18.92;12.68;;;;;;;13.08;77.40;100459.31;5075089;28;20032;-47
2023/03/30 00:31:26;;;;;;;19.50;12.45;;;;;;;13.10;77.01;100476.47;5074900;28;20475;-49
2023/03/30 00:33:51;;;;;;;17.77;12.15;;;;;;;13.11;77.22;100469.75;5071640;28;20032;-47
2023/03/30 00:36:16;;;;;;;19.35;12.35;;;;;;;13.11;77.13;100449.53;5074974;28;20403;-45
2023/03/30 00:38:41;;;;;;;20.10;12.13;;;;;;;13.15;77.03;100455.22;5074855;28;20021;-45
2023/03/30 00:41:08;;;;;;;18.40;12.13;;;;;;;13.17;76.94;100459.28;5074710;28;20039;-47
2023/03/30 00:43:33;;;;;;;17.75;11.98;;;;;;;13.18;77.08;100452.59;5074840;28;20032;-46
2023/03/30 00:45:59;;;;;;;18.75;12.60;;;;;;;13.15;76.38;100433.81;5056816;28;20024;-47
2023/03/30 00:48:31;;;;;;;18.60;12.50;;;;;;;13.20;77.01;100433.63;5074707;28;20021;-45
2023/03/30 00:51:08;;;;;;;20.20;12.45;;;;;;;13.19;77.29;100408.94;5074851;28;20024;-46
2023/03/30 00:53:57;;;;;;;18.67;12.23;;;;;;;13.22;76.72;100424.94;5074623;28;20071;-46
2023/03/30 00:56:28;;;;;;;19.35;12.20;;;;;;;13.22;76.74;100422.19;5074143;28;20045;-48
2023/03/30 00:58:53;;;;;;;18.98;12.13;;;;;;;13.23;76.28;100412.69;5074782;28;20029;-45
2023/03/30 01:01:27;;;;;;;19.88;12.32;;;;;;;13.25;77.19;100418.75;5074556;28;20503;-46
2023/03/30 01:03:55;;;;;;;18.13;12.18;;;;;;;13.22;77.05;100408.28;5074669;28;20029;-47
2023/03/30 01:06:23;;;;;;;20.17;12.18;;;;;;;13.24;76.45;100406.00;5074097;28;20028;-47
2023/03/30 01:08:49;;;;;;;19.60;12.23;;;;;;;13.23;76.38;100396.03;5074696;28;20027;-47
2023/03/30 01:11:15;;;;;;;18.15;12.20;;;;;;;13.23;76.37;100402.38;5056319;28;20031;-45
2023/03/30 01:13:45;;;;;;;18.25;12.00;;;;;;;13.21;76.31;100401.09;5074273;28;20024;-45
2023/03/30 01:16:31;;;;;;;17.90;12.07;;;;;;;13.23;75.59;100409.91;5073885;28;20543;-49
2023/03/30 01:19:21;;;;;;;18.13;11.93;;;;;;;13.22;76.13;100399.94;5074453;28;20063;-50
2023/03/30 01:21:54;;;;;;;17.73;11.93;;;;;;;13.20;76.05;100400.31;5074511;28;20523;-47
2023/03/30 01:24:57;;;;;;;18.42;11.75;;;;;;;13.24;76.64;100406.78;5056203;28;20386;-48
2023/03/30 01:27:45;;;;;;;19.00;11.82;;;;;;;13.22;76.03;100403.56;5074302;28;20036;-46
2023/03/30 01:30:28;;;;;;;19.35;11.82;;;;;;;13.21;75.91;100413.03;5071200;28;20028;-48
2023/03/30 01:32:54;;;;;;;18.65;12.05;;;;;;;13.19;75.57;100409.78;5074292;28;20824;-47
2023/03/30 01:35:49;;;;;;;18.70;12.00;;;;;;;13.22;76.38;100402.72;5073861;28;20040;-43
2023/03/30 01:38:47;;;;;;;19.77;12.07;;;;;;;13.20;76.27;100396.69;5074239;28;20090;-45
2023/03/30 01:41:24;;;;;;;18.20;12.07;;;;;;;13.21;76.70;100401.09;5001408;28;20042;-47
2023/03/30 01:44:01;;;;;;;19.23;11.93;;;;;;;13.21;76.82;100399.16;5074002;28;20043;-46
2023/03/30 01:46:31;;;;;;;18.88;11.93;;;;;;;13.15;76.03;100389.38;5073985;28;20024;-44
2023/03/30 01:49:10;;;;;;;17.80;11.68;;;;;;;13.20;76.25;100386.41;5073702;28;20055;-44
2023/03/30 01:51:56;;;;;;;18.75;12.10;;;;;;;13.17;76.11;100369.59;5073620;28;20093;-48
2023/03/30 01:54:28;;;;;;;17.88;12.05;;;;;;;13.20;76.22;100366.13;5073528;28;20085;-43
2023/03/30 01:57:03;;;;;;;18.98;11.80;;;;;;;13.18;76.20;100362.88;5055461;28;20470;-48
2023/03/30 01:59:33;;;;;;;17.90;11.90;;;;;;;13.21;76.05;100363.03;5073463;28;20041;-44
2023/03/30 02:02:03;;;;;;;17.05;11.70;;;;;;;13.21;75.94;100378.88;5073082;28;20040;-47
2023/03/30 02:04:32;;;;;;;18.80;11.63;;;;;;;13.18;75.93;100383.16;5073144;28;20032;-45
2023/03/30 02:07:03;;;;;;;17.92;11.43;;;;;;;13.18;76.16;100385.94;5073099;28;20036;-45
2023/03/30 02:09:31;;;;;;;18.00;11.80;;;;;;;13.23;75.87;100393.25;5072649;28;20029;-44
2023/03/30 02:11:57;;;;;;;17.60;11.43;;;;;;;13.23;75.96;100385.72;5072891;28;20377;-45
2023/03/30 02:14:27;;;;;;;17.17;11.30;;;;;;;13.27;76.07;100378.34;5072759;28;20032;-45
2023/03/30 02:17:02;;;;;;;16.17;10.88;;;;;;;13.33;75.91;100389.25;5072694;28;20394;-47
2023/03/30 02:19:27;;;;;;;16.85;11.38;;;;;;;13.35;76.04;100389.75;5072780;28;20448;-43
2023/03/30 02:21:53;;;;;;;17.88;11.25;;;;;;;13.37;76.01;100387.44;5072685;28;20093;-48
2023/03/30 02:24:23;;;;;;;16.73;10.77;;;;;;;13.37;75.82;100387.44;5069110;28;20088;-44
2023/03/30 02:26:51;;;;;;;18.33;11.35;;;;;;;13.41;75.42;100389.25;5072551;28;20481;-44
2023/03/30 02:29:18;;;;;;;17.23;11.35;;;;;;;13.45;75.58;100383.84;5072621;28;20024;-45
2023/03/30 02:31:46;;;;;;;16.50;11.15;;;;;;;13.43;75.40;100371.44;5054375;28;20024;-45
2023/03/30 02:34:53;;;;;;;18.58;11.80;;;;;;;13.49;75.32;100379.25;5072237;28;20040;-42
2023/03/30 02:37:47;;;;;;;17.85;11.48;;;;;;;13.51;75.16;100381.66;5069208;28;20040;-45
2023/03/30 02:40:51;;;;;;;18.50;11.68;;;;;;;13.52;75.26;100386.09;5072385;28;20117;-44
2023/03/30 02:43:22;;;;;;;19.08;11.68;;;;;;;13.51;74.85;100381.66;5072346;28;20028;-45
2023/03/30 02:46:08;;;;;;;17.67;11.77;;;;;;;13.51;74.82;100382.47;5072334;28;20083;-43
2023/03/30 02:49:03;;;;;;;17.92;11.23;;;;;;;13.50;74.92;100383.66;5072258;28;20508;-43
2023/03/30 02:51:41;;;;;;;17.02;11.48;;;;;;;13.52;75.36;100381.31;5072399;28;20033;-45
2023/03/30 02:54:31;;;;;;;17.55;11.40;;;;;;;13.52;75.14;100389.66;5072361;28;20062;-45
2023/03/30 02:57:24;;;;;;;19.80;11.68;;;;;;;13.51;74.98;100382.47;5072538;28;20033;-47
2023/03/30 03:00:07;;;;;;;17.23;11.35;;;;;;;13.50;75.62;100382.81;5072381;28;20031;-43
2023/03/30 03:02:37;;;;;;;;;;;;;;;13.55;75.52;100383.44;5072437;28;20070;-43
2023/03/30 03:05:03;;;;;;;19.30;11.70;;;;;;;13.51;75.75;100384.44;5071978;28;19957;-47
2023/03/30 03:07:32;;;;;;;19.33;11.98;;;;;;;13.50;75.36;100385.59;5071962;28;20020;-44
2023/03/30 03:09:58;;;;;;;18.85;12.02;;;;;;;13.46;75.27;100377.13;5072011;28;20028;-43
2023/03/30 03:12:24;;;;;;;19.48;11.90;;;;;;;13.46;75.26;100374.34;5071513;28;20449;-46
2023/03/30 03:14:49;;;;;;;17.77;11.73;;;;;;;13.47;75.95;100372.38;5071480;28;20067;-46
2023/03/30 03:17:17;;;;;;;17.55;11.40;;;;;;;13.48;76.13;100377.59;5071207;28;20469;-46
2023/03/30 03:19:42;;;;;;;18.08;11.80;;;;;;;13.46;75.78;100376.31;5067385;28;20393;-44
2023/03/30 03:22:07;;;;;;;18.42;11.38;;;;;;;13.48;75.67;100387.91;5071458;28;20024;-44
2023/03/30 03:24:32;;;;;;;20.13;11.35;;;;;;;13.48;75.40;100385.13;5071796;28;20066;-43
2023/03/30 03:26:58;;;;;;;19.08;11.45;;;;;;;13.45;75.57;100388.59;5071743;28;20433;-45
2023/03/30 03:29:23;;;;;;;17.60;11.32;;;;;;;13.48;75.79;100390.66;5053658;28;20561;-44
2023/03/30 03:31:48;;;;;;;18.50;11.55;;;;;;;13.48;75.39;100380.38;5071496;28;20032;-45
2023/03/30 03:34:14;;;;;;;18.98;11.52;;;;;;;13.49;75.97;100378.41;5071308;28;20074;-44
2023/03/30 03:36:39;;;;;;;18.10;11.48;;;;;;;13.51;75.17;100367.78;5071580;28;20529;-44
2023/03/30 03:39:05;;;;;;;17.60;11.20;;;;;;;13.52;75.06;100372.97;5071237;28;20028;-44
2023/03/30 03:41:30;;;;;;;16.75;10.95;;;;;;;13.52;75.12;100367.44;5071859;28;20641;-47
2023/03/30 03:43:55;;;;;;;18.65;11.70;;;;;;;13.53;74.75;100357.16;5071648;28;20090;-44
2023/03/30 03:46:21;;;;;;;19.52;11.95;;;;;;;13.54;74.78;100362.34;5071508;28;20081;-43
2023/03/30 03:48:46;;;;;;;17.08;11.60;;;;;;;13.53;74.99;100346.03;5071192;28;20037;-44
2023/03/30 03:51:11;;;;;;;17.23;11.50;;;;;;;13.55;76.05;100338.97;5070774;28;20044;-45
2023/03/30 03:53:37;;;;;;;16.38;11.20;;;;;;;13.57;75.25;100346.97;5070633;28;20035;-43
2023/03/30 03:56:02;;;;;;;16.58;11.18;;;;;;;13.56;75.14;100348.94;5070750;28;20066;-44
2023/03/30 03:58:27;;;;;;;18.08;11.43;;;;;;;13.55;75.24;100350.09;5071439;28;20127;-47
2023/03/30 04:00:58;;;;;;;18.25;11.70;;;;;;;13.56;75.33;100351.72;5071334;28;20063;-47
2023/03/30 04:03:23;;;;;;;19.33;11.65;;;;;;;13.55;75.81;100350.09;5070806;28;20024;-43
2023/03/30 04:05:49;;;;;;;18.42;11.60;;;;;;;13.54;76.11;100345.69;5071309;28;20040;-45
2023/03/30 04:08:16;;;;;;;17.25;11.63;;;;;;;13.53;76.77;100337.69;5071506;28;20029;-43
2023/03/30 04:10:42;;;;;;;18.08;11.48;;;;;;;13.51;77.30;100351.09;5071408;28;20678;-42
2023/03/30 04:13:08;;;;;;;19.45;11.88;;;;;;;13.49;76.86;100353.41;5070962;28;20036;-43
2023/03/30 04:15:33;;;;;;;19.02;11.30;;;;;;;13.48;76.65;100347.03;5067888;28;20099;-44
2023/03/30 04:18:00;;;;;;;17.60;11.52;;;;;;;13.44;77.07;100357.19;5071383;28;20028;-44
2023/03/30 04:20:27;;;;;;;15.98;11.30;;;;;;;13.43;77.33;100349.19;5071559;28;20073;-43
2023/03/30 04:22:52;;;;;;;17.88;11.52;;;;;;;13.43;77.47;100352.78;5070970;28;20073;-47
2023/03/30 04:25:20;;;;;;;18.52;11.38;;;;;;;13.41;77.39;100344.78;5071395;28;20025;-44
2023/03/30 04:27:50;;;;;;;17.35;11.55;;;;;;;13.40;77.88;100345.16;5071447;28;20020;-44
2023/03/30 04:30:16;;;;;;;17.25;11.52;;;;;;;13.38;78.56;100334.31;5071072;28;20020;-44
2023/03/30 04:32:43;;;;;;;19.13;12.00;;;;;;;13.35;79.34;100346.13;5071134;28;20036;-46
2023/03/30 04:35:09;;;;;;;20.05;12.00;;;;;;;13.29;80.30;100333.56;5071277;28;20017;-43
2023/03/30 04:37:37;;;;;;;19.15;12.02;;;;;;;13.27;80.64;100336.69;5071358;28;20485;-48
2023/03/30 04:40:07;;;;;;;19.02;11.40;;;;;;;13.25;81.09;100322.31;5070595;28;20493;-43
2023/03/30 04:42:36;;;;;;;16.65;11.65;;;;;;;13.21;81.63;100332.50;5066298;28;20095;-43
2023/03/30 04:45:03;;;;;;;18.70;11.75;;;;;;;13.20;82.11;100332.81;5051088;28;20031;-43
2023/03/30 04:47:29;;;;;;;18.08;11.52;;;;;;;13.19;82.50;100328.41;5050846;28;20029;-43
2023/03/30 04:49:55;;;;;;;17.83;11.57;;;;;;;13.15;82.69;100319.94;5052114;28;20041;-42
2023/03/30 04:52:21;;;;;;;17.67;11.73;;;;;;;13.13;82.80;100315.88;5054657;28;20037;-46
2023/03/30 04:54:46;;;;;;;18.50;12.13;;;;;;;13.11;82.79;100325.34;5054609;28;20043;-44
2023/03/30 04:57:15;;;;;;;18.95;11.90;;;;;;;13.09;83.06;100312.97;5054590;28;20096;-44
2023/03/30 04:59:41;;;;;;;18.20;12.07;;;;;;;13.04;83.80;100325.06;5054632;28;20048;-46
2023/03/30 05:02:08;;;;;;;18.65;11.93;;;;;;;13.00;83.62;100314.97;5054430;28;20033;-43
2023/03/30 05:04:34;;;;;;;19.15;11.70;;;;;;;12.99;84.06;100325.25;5054472;28;20356;-44
2023/03/30 05:07:00;;;;;;;18.98;12.10;;;;;;;12.99;84.34;100341.91;5054192;28;20478;-43
2023/03/30 05:09:26;;;;;;;19.77;12.60;;;;;;;12.95;84.72;100358.44;5054484;28;20103;-42
2023/03/30 05:11:51;;;;;;;19.48;12.40;;;;;;;12.95;85.55;100375.09;5050663;28;20545;-45
2023/03/30 05:14:16;;;;;;;20.13;12.68;;;;;;;12.91;87.74;100374.13;5053977;28;20036;-43
2023/03/30 05:16:42;;;;;;;18.83;12.75;;;;;;;12.88;89.88;100374.00;5054219;28;20112;-44
2023/03/30 05:19:10;;;;;;;18.55;12.07;;;;;;;12.83;91.27;100375.00;5054109;28;20486;-43
2023/03/30 05:21:36;;;;;;;21.27;12.50;;;;;;;12.77;92.47;100376.31;5054147;28;20025;-42
2023/03/30 05:24:01;;;;;;;19.38;12.40;;;;;;;12.71;93.52;100372.09;5054050;28;20123;-43
2023/03/30 05:26:27;;;;;;;17.88;12.70;;;;;;;12.65;94.10;100368.69;5053989;28;20029;-46
2023/03/30 05:28:53;;;;;;;18.58;12.65;;;;;;;12.58;94.79;100373.94;5054037;28;20083;-43
2023/03/30 05:31:19;;;;;;;19.25;12.52;;;;;;;12.56;94.36;100387.31;5035985;28;20032;-45
2023/03/30 05:33:45;;;;;;;18.52;12.65;;;;;;;12.50;95.07;100394.22;5053966;28;20028;-42
2023/03/30 05:36:11;;;;;;;20.05;12.75;;;;;;;12.47;96.06;100396.50;5053424;28;20021;-42
2023/03/30 05:38:36;;;;;;;20.23;13.35;;;;;;;12.43;96.44;100395.50;5053680;28;20059;-43
2023/03/30 05:41:03;;;;;;;19.15;13.00;;;;;;;12.41;96.77;100391.44;5053676;28;20040;-43
2023/03/30 05:43:31;;;;;;;17.95;12.82;;;;;;;12.40;97.57;100392.59;5035692;28;20119;-43
2023/03/30 05:45:56;;;;;;;20.48;12.77;;;;;;;12.39;97.88;100389.00;5053558;28;20036;-42
2023/03/30 05:48:22;;;;;;;18.60;12.52;;;;;;;12.38;97.55;100392.91;5053496;28;20029;-43
2023/03/30 05:50:47;;;;;;;21.50;13.05;;;;;;;12.36;98.03;100389.66;5035558;28;20025;-43
2023/03/30 05:53:12;;;;;;;20.02;13.23;;;;;;;12.33;98.72;100382.81;5053573;28;20033;-42
2023/03/30 05:55:38;;;;;;;20.02;13.10;;;;;;;12.35;98.50;100390.78;5053426;28;20029;-43
2023/03/30 05:58:03;;;;;;;20.25;13.45;;;;;;;12.32;98.06;100392.28;5053372;28;20029;-43
2023/03/30 06:00:32;;;;;;;19.10;12.85;;;;;;;12.34;97.82;100386.38;5052894;28;20091;-43
2023/03/30 06:02:57;;;;;;;21.48;12.63;;;;;;;12.31;97.70;100379.56;5053365;28;20047;-45
2023/03/30 06:05:23;;;;;;;20.90;12.65;;;;;;;12.30;98.20;100383.47;5052684;28;20545;-48
2023/03/30 06:07:48;;;;;;;18.70;12.43;;;;;;;12.29;97.79;100384.59;5049707;28;20052;-44
2023/03/30 06:10:14;;;;;;;20.33;12.32;;;;;;;12.28;98.13;100388.53;5053000;28;20058;-44
2023/03/30 06:12:40;;;;;;;19.17;12.55;;;;;;;12.27;98.09;100403.56;5053032;28;20104;-45
2023/03/30 06:15:07;;;;;;;19.88;12.25;;;;;;;12.26;98.39;100399.16;5053048;28;20120;-44
2023/03/30 06:17:33;;;;;;;20.15;12.50;;;;;;;12.26;98.57;100406.63;5052640;28;20078;-45
2023/03/30 06:19:58;;;;;;;19.20;12.43;;;;;;;12.25;99.00;100403.06;5053118;28;20029;-44
2023/03/30 06:22:24;;;;;;;20.98;13.00;;;;;;;12.24;98.63;100397.81;5052613;28;20505;-43
2023/03/30 06:24:49;;;;;;;20.00;12.82;;;;;;;12.23;99.26;100401.75;5052881;28;20017;-44
2023/03/30 06:27:14;;;;;;;19.73;12.30;;;;;;;12.21;98.65;100404.06;5034776;28;20098;-44
2023/03/30 06:29:40;;;;;;;18.60;12.27;;;;;;;12.25;97.95;100408.59;5052881;28;20033;-45
2023/03/30 06:32:06;;;;;;;22.02;12.13;;;;;;;12.25;97.05;100391.97;5052929;28;20434;-44
2023/03/30 06:34:31;;;;;;;19.60;12.45;;;;;;;12.26;96.79;100410.25;5052577;28;20411;-46
2023/03/30 06:36:57;;;;;;;19.25;12.07;;;;;;;12.28;96.90;100410.72;5052731;28;20025;-44
2023/03/30 06:39:22;;;;;;;20.67;12.13;;;;;;;12.31;96.96;100420.34;5052685;28;20099;-43
2023/03/30 06:41:47;;;;;;;23.00;12.25;;;;;;;12.33;96.61;100429.13;5052519;28;20033;-44
2023/03/30 06:44:16;;;;;;;17.58;11.55;;;;;;;12.38;96.85;100420.66;5051871;28;20052;-44
2023/03/30 06:46:42;;;;;;;20.70;11.90;;;;;;;12.39;96.32;100429.78;5052045;28;20090;-45
2023/03/30 06:49:07;;;;;;;19.88;12.20;;;;;;;12.41;96.33;100435.81;5052199;28;20029;-44
2023/03/30 06:51:36;;;;;;;19.73;12.10;;;;;;;12.40;96.02;100434.19;5034338;28;20486;-45
2023/03/30 06:54:02;;;;;;;21.42;12.30;;;;;;;12.31;95.26;100414.81;5052197;28;20394;-43
2023/03/30 06:56:27;;;;;;;21.23;12.75;;;;;;;12.40;95.87;100426.69;5052279;28;20033;-43
2023/03/30 06:58:52;;;;;;;19.80;12.45;;;;;;;12.41;95.48;100433.06;5052402;28;20068;-43
2023/03/30 07:01:18;;;;;;;20.77;12.30;;;;;;;12.40;95.30;100423.94;5052192;28;20467;-44
2023/03/30 07:03:43;;;;;;;20.90;12.85;;;;;;;12.36;95.21;100434.03;5048582;28;20037;-46
2023/03/30 07:06:09;;;;;;;20.55;12.32;;;;;;;12.34;95.11;100430.78;5034155;28;20036;-44
2023/03/30 07:08:35;;;;;;;19.65;12.40;;;;;;;12.32;95.47;100439.44;5051918;28;20478;-43
2023/03/30 07:11:02;;;;;;;21.60;12.32;;;;;;;12.31;94.88;100437.00;5052021;28;20032;-46
2023/03/30 07:13:27;;;;;;;19.40;11.95;;;;;;;12.32;95.80;100433.88;5051360;28;20394;-44
2023/03/30 07:15:53;;;;;;;20.35;12.10;;;;;;;12.33;95.84;100441.06;5051924;28;20032;-46
2023/03/30 07:18:19;;;;;;;22.30;11.90;;;;;;;12.33;95.47;100452.16;5052015;28;20028;-45
2023/03/30 07:20:45;;;;;;;20.73;12.05;;;;;;;12.34;95.85;100444.63;5051820;28;20079;-44
2023/03/30 07:23:10;;;;;;;21.45;11.75;;;;;;;12.40;95.06;100453.59;5051879;28;20520;-47
2023/03/30 07:25:40;;;;;;;22.35;12.30;;;;;;;12.43;94.93;100450.19;5051811;28;20025;-45
2023/03/30 07:28:05;;;;;;;20.73;12.15;;;;;;;12.46;95.64;100444.00;5051860;28;20024;-47
2023/03/30 07:30:32;;;;;;;20.92;12.40;;;;;;;12.48;94.95;100442.50;5051753;28;20398;-45
2023/03/30 07:32:57;;;;;;;19.83;12.55;;;;;;;12.52;94.87;100458.47;5051833;28;20017;-45
2023/03/30 07:35:23;;;;;;;20.50;12.18;;;;;;;12.58;94.25;100455.22;5050508;28;20102;-45
2023/03/30 07:37:49;;;;;;;19.92;12.18;;;;;;;12.66;94.74;100461.09;5050788;28;20254;-45
2023/03/30 07:40:16;;;;;;;20.00;11.90;;;;;;;12.72;94.37;100462.53;5051152;28;20029;-45
2023/03/30 07:42:42;;;;;;;20.08;12.15;;;;;;;12.82;93.42;100461.38;5051433;28;20228;-44
2023/03/30 07:45:08;;;;;;;21.45;11.93;;;;;;;12.90;93.14;100466.06;5033438;28;20496;-45
2023/03/30 07:47:33;;;;;;;21.40;11.77;;;;;;;12.95;92.59;100463.94;5051270;28;20028;-43
2023/03/30 07:49:59;;;;;;;21.80;11.63;;;;;;;12.99;91.71;100458.53;5051244;28;20040;-46
2023/03/30 07:52:25;;;;;;;20.20;12.20;;;;;;;13.02;92.26;100466.19;5051275;28;20445;-45
2023/03/30 07:54:50;;;;;;;23.83;12.00;;;;;;;13.13;91.62;100472.19;5051392;28;20025;-48
2023/03/30 07:57:15;;;;;;;21.92;11.23;;;;;;;13.17;90.16;100470.41;5051390;28;20052;-46
2023/03/30 07:59:41;;;;;;;20.38;11.30;;;;;;;13.21;90.44;100474.16;5046094;28;20284;-43
2023/03/30 08:02:11;;;;;;;22.15;11.48;;;;;;;13.25;89.82;100472.31;5048950;28;20021;-46
2023/03/30 08:04:36;;;;;;;20.40;11.43;;;;;;;13.30;89.58;100479.66;5050001;28;20033;-46
2023/03/30 08:07:01;;;;;;;21.70;11.73;;;;;;;13.34;88.98;100480.63;5049988;28;20067;-45
2023/03/30 08:09:27;;;;;;;19.63;11.50;;;;;;;13.37;88.75;100479.94;5049865;28;20060;-44
2023/03/30 08:11:52;;;;;;;22.77;11.95;;;;;;;13.44;88.54;100487.78;5050310;28;20033;-45
2023/03/30 08:14:17;;;;;;;22.85;11.95;;;;;;;13.47;87.44;100491.84;5050339;28;20025;-44
2023/03/30 08:16:43;;;;;;;20.77;11.43;;;;;;;13.47;87.70;100484.34;5050243;28;20470;-45
2023/03/30 08:19:08;;;;;;;21.42;11.90;;;;;;;13.51;87.54;100493.63;5050150;28;20110;-44
2023/03/30 08:21:34;;;;;;;21.00;11.38;;;;;;;13.53;87.79;100493.31;5050072;28;20029;-45
2023/03/30 08:23:59;;;;;;;21.83;11.52;;;;;;;13.57;86.51;100492.31;5051106;28;20203;-44
2023/03/30 08:26:25;;;;;;;19.83;11.55;;;;;;;13.64;86.13;100502.91;5054008;28;20070;-43
2023/03/30 08:28:51;;;;;;;22.95;12.00;;;;;;;13.63;86.65;100492.09;5053809;28;20036;-45
2023/03/30 08:31:17;;;;;;;22.17;12.05;;;;;;;13.66;86.34;100491.44;5053780;28;20032;-45
2023/03/30 08:33:47;;;;;;;22.92;12.35;;;;;;;13.72;85.43;100504.00;5053790;28;20041;-47
2023/03/30 08:36:12;;;;;;;20.75;11.90;;;;;;;13.75;83.96;100503.31;5053472;28;20028;-45
2023/03/30 08:38:38;;;;;;;22.45;11.73;;;;;;;13.79;83.45;100501.47;5053886;28;20032;-44
2023/03/30 08:41:23;;;;;;;19.05;11.60;;;;;;;13.79;83.53;100495.13;5053971;28;20044;-45
2023/03/30 08:43:51;;;;;;;21.50;12.20;;;;;;;13.85;82.92;100510.44;5053877;28;20115;-46
2023/03/30 08:46:18;;;;;;;23.35;12.07;;;;;;;13.85;83.12;100496.53;5053395;28;20064;-49
2023/03/30 08:48:46;;;;;;;20.83;11.93;;;;;;;13.86;82.35;100503.75;5053520;28;20043;-47
2023/03/30 08:51:14;;;;;;;20.80;12.00;;;;;;;13.86;82.64;100501.78;5053426;28;20025;-45
2023/03/30 08:53:40;;;;;;;22.20;12.20;;;;;;;13.87;81.81;100495.06;5044532;28;20563;-45
2023/03/30 08:56:14;;;;;;;24.45;12.05;;;;;;;13.91;80.27;100503.56;5047820;28;20120;-44
2023/03/30 08:58:49;;;;;;;21.13;12.07;;;;;;;13.95;80.85;100500.91;5053312;28;20529;-48
2023/03/30 09:01:51;;;;;;;20.58;11.82;;;;;;;14.04;80.93;100513.59;5052269;28;20064;-45
2023/03/30 09:04:47;;;;;;;19.95;11.77;;;;;;;14.08;79.27;100516.50;5053355;28;20114;-43
2023/03/30 09:07:26;;;;;;;19.70;11.80;;;;;;;14.14;79.58;100514.34;5052927;28;20033;-44
2023/03/30 09:09:52;;;;;;;23.95;12.02;;;;;;;14.23;79.34;100503.16;5052695;28;20025;-44
2023/03/30 09:12:30;;;;;;;25.30;12.50;;;;;;;14.33;79.43;100498.00;5052647;28;20025;-44
2023/03/30 09:15:14;;;;;;;26.55;12.00;;;;;;;14.38;78.57;100496.16;5053025;28;20029;-48
2023/03/30 09:18:15;;;;;;;24.88;11.50;;;;;;;14.40;78.07;100511.38;5052786;28;20071;-47
2023/03/30 09:20:42;;;;;;;21.27;11.65;;;;;;;14.38;75.64;100518.44;5051183;28;20398;-46
2023/03/30 09:23:17;;;;;;;24.65;11.75;;;;;;;14.36;76.59;100515.97;5052827;28;20141;-49
2023/03/30 09:26:03;;;;;;;22.08;12.20;;;;;;;14.28;76.59;100514.91;5051042;28;20129;-50
2023/03/30 09:28:33;;;;;;;24.60;11.73;;;;;;;14.33;75.17;100523.03;5052590;28;20034;-48
2023/03/30 09:31:07;;;;;;;23.45;11.48;;;;;;;14.27;74.41;100529.97;5052712;28;20056;-45
2023/03/30 09:33:54;;;;;;;25.73;12.38;;;;;;;14.25;74.96;100542.59;5052327;28;20416;-46
2023/03/30 09:36:47;;;;;;;23.67;11.63;;;;;;;14.24;74.62;100541.75;5050862;28;20036;-49
2023/03/30 09:39:18;;;;;;;23.38;11.32;;;;;;;14.22;74.01;100532.13;5050610;28;20041;-46
2023/03/30 09:42:20;;;;;;;24.45;11.80;;;;;;;14.23;74.82;100545.69;5051094;28;20028;-45
2023/03/30 09:44:56;;;;;;;23.58;11.98;;;;;;;14.14;74.48;100540.22;5015413;28;20045;-45
2023/03/30 09:47:36;;;;;;;22.80;12.05;;;;;;;14.24;74.24;100549.31;5050915;28;20021;-45
2023/03/30 09:50:08;;;;;;;21.75;12.43;;;;;;;14.25;74.80;100548.16;5033110;28;20043;-45
2023/03/30 09:52:39;;;;;;;21.98;12.18;;;;;;;14.34;73.34;100560.03;5051896;28;20052;-48
2023/03/30 09:55:35;;;;;;;24.40;11.93;;;;;;;14.44;74.90;100558.81;5050955;28;20933;-45
2023/03/30 09:58:26;;;;;;;24.60;12.10;;;;;;;14.51;74.56;100559.91;5030984;28;20048;-46
2023/03/30 10:01:11;;;;;;;23.30;12.32;;;;;;;14.62;73.47;100551.94;5051082;28;20632;-47
2023/03/30 10:03:37;;;;;;;24.05;11.93;;;;;;;14.70;72.73;100552.22;5063138;28;20081;-46
2023/03/30 10:06:09;;;;;;;23.38;11.93;;;;;;;14.76;72.37;100560.03;5069396;28;20027;-45
2023/03/30 10:08:50;;;;;;;24.38;12.00;;;;;;;14.78;71.60;100556.94;5051877;28;20040;-47
2023/03/30 10:11:20;;;;;;;23.58;11.80;;;;;;;14.83;70.69;100559.47;5051822;28;20086;-44
2023/03/30 10:13:48;;;;;;;24.77;12.40;;;;;;;14.86;71.39;100553.25;5069278;28;20436;-45
2023/03/30 10:16:42;;;;;;;23.33;12.57;;;;;;;14.94;71.63;100569.03;5071454;28;20115;-46
2023/03/30 10:19:16;;;;;;;25.20;12.10;;;;;;;14.92;70.29;100581.69;5068234;28;20052;-45
2023/03/30 10:21:45;;;;;;;22.77;12.00;;;;;;;14.92;70.75;100581.69;5052625;28;20047;-47
2023/03/30 10:24:13;;;;;;;22.83;12.40;;;;;;;14.92;70.98;100578.91;5049987;28;20049;-46
2023/03/30 10:26:43;;;;;;;26.88;12.90;;;;;;;14.95;71.50;100587.38;5071198;28;20033;-45
2023/03/30 10:29:15;;;;;;;24.65;12.30;;;;;;;14.86;71.09;100552.41;5031171;28;20076;-45
2023/03/30 10:31:44;;;;;;;22.77;12.20;;;;;;;15.03;71.21;100582.06;5012999;28;20032;-46
2023/03/30 10:34:17;;;;;;;25.98;12.30;;;;;;;15.11;70.94;100567.22;5031710;28;20096;-45
2023/03/30 10:36:46;;;;;;;23.48;11.20;;;;;;;15.21;70.72;100577.16;5031301;28;20037;-45
2023/03/30 10:39:11;;;;;;;21.65;11.35;;;;;;;15.22;69.48;100581.53;5031076;28;20037;-43
2023/03/30 10:41:39;;;;;;;26.40;12.13;;;;;;;15.17;68.84;100563.06;5031294;28;20033;-44
2023/03/30 10:44:23;;;;;;;24.70;11.63;;;;;;;15.18;69.41;100578.63;5031403;28;20295;-44
2023/03/30 10:46:51;;;;;;;25.73;12.45;;;;;;;15.18;67.49;100575.84;5031341;28;20107;-42
2023/03/30 10:49:41;;;;;;;22.58;12.25;;;;;;;15.18;67.55;100581.41;5030684;28;20172;-43
2023/03/30 10:52:24;;;;;;;22.95;11.80;;;;;;;15.15;67.03;100572.94;5047069;28;20029;-42
2023/03/30 10:55:03;;;;;;;20.35;11.48;;;;;;;15.07;67.07;100583.81;5050889;28;20083;-47
2023/03/30 10:57:48;;;;;;;26.58;12.07;;;;;;;15.04;68.03;100580.91;5050955;28;20033;-44
2023/03/30 11:00:28;;;;;;;23.50;12.10;;;;;;;14.96;68.02;100574.25;5050837;28;20072;-48
2023/03/30 11:02:59;;;;;;;22.73;11.32;;;;;;;15.01;67.46;100574.06;5049597;28;20374;-44
2023/03/30 11:05:31;;;;;;;22.00;10.77;;;;;;;15.01;67.46;100570.44;5050774;28;20043;-43
2023/03/30 11:08:06;;;;;;;22.35;11.20;;;;;;;15.04;67.48;100578.13;5050633;28;20509;-46
2023/03/30 11:10:43;;;;;;;22.50;10.90;;;;;;;14.99;67.11;100584.72;5050717;28;20048;-47
2023/03/30 11:13:20;;;;;;;24.50;11.82;;;;;;;15.04;67.54;100586.50;5050852;28;20521;-46
2023/03/30 11:16:11;;;;;;;24.73;12.73;;;;;;;15.06;67.90;100589.75;5050412;28;20043;-44
2023/03/30 11:18:46;;;;;;;23.35;12.30;;;;;;;15.09;67.50;100581.50;5050443;28;20032;-43
2023/03/30 11:21:19;;;;;;;24.83;12.65;;;;;;;15.10;68.27;100590.69;5050608;28;20028;-44
2023/03/30 11:23:52;;;;;;;25.25;12.18;;;;;;;15.21;68.72;100585.50;5050484;28;20061;-44
2023/03/30 11:26:33;;;;;;;22.65;11.70;;;;;;;15.29;68.64;100584.59;5050512;28;20111;-43